Terminal Aerodrome Forecast
Issued by NWS Shreveport, LA

Home | Current Version | Previous Version | Text Only | Print | Product List | Glossary On
Versions: 1 2 3 4 5 6 7 8 9 10 11 12 13 14 15 16 17 18 19 20
000
FTUS44 KSHV 301740
TAFTYR
TAF
KTYR 301740Z 3018/3118 05008KT P6SM SCT050 OVC150
     FM302100 32007KT P6SM VCTS BKN035CB
     FM310100 36006KT P6SM BKN250
     FM310900 33004KT P6SM BKN015
     FM311600 34008KT P6SM SCT250=

USA.gov is the U.S. government's official web portal to all federal, state and local government web resources and services.